Time;durP1;ratioP1;P1;durP2;ratioP2;P2;SDS_P1;SDS_P2;PMS_P1;PMS_P2;Temp;Humidity;BMP_temperature;BMP_pressure;BME280_temperature;BME280_humidity;BME280_pressure;Samples;Min_cycle;Max_cycle;Signal;HPM_P1;HPM_P2
2023/12/25 00:01:23;;;;;;;3.90;2.10;;;11.80;45.10;;;;;;6285960;22;20525;-86
2023/12/25 00:03:49;;;;;;;4.10;2.97;;;11.80;45.20;;;;;;6282199;22;20187;-85
2023/12/25 00:06:14;;;;;;;3.07;2.77;;;11.70;47.60;;;;;;6285392;22;20176;-85
2023/12/25 00:08:40;;;;;;;5.43;3.30;;;11.70;50.80;;;;;;6284364;22;20601;-85
2023/12/25 00:11:05;;;;;;;5.13;3.20;;;11.70;54.30;;;;;;6286273;22;20173;-85
2023/12/25 00:13:31;;;;;;;3.57;3.10;;;11.70;57.70;;;;;;6286043;22;20148;-85
2023/12/25 00:15:56;;;;;;;6.70;3.10;;;11.70;56.80;;;;;;6285973;22;20197;-85
2023/12/25 00:18:23;;;;;;;4.73;2.87;;;11.70;57.40;;;;;;6257543;22;20636;-86
2023/12/25 00:20:48;;;;;;;4.10;2.83;;;11.70;56.10;;;;;;6254513;22;20267;-85
2023/12/25 00:23:14;;;;;;;4.40;2.73;;;11.70;54.00;;;;;;6283461;22;20430;-85
2023/12/25 00:25:39;;;;;;;3.63;2.87;;;11.70;53.10;;;;;;6256076;22;20184;-85
2023/12/25 00:28:05;;;;;;;4.80;3.07;;;11.70;52.90;;;;;;6258289;22;20157;-85
2023/12/25 00:30:31;;;;;;;7.27;2.57;;;11.70;53.70;;;;;;6285444;22;20191;-86
2023/12/25 00:32:56;;;;;;;3.80;2.90;;;11.70;56.90;;;;;;6256940;22;20387;-85
2023/12/25 00:35:22;;;;;;;5.30;3.20;;;11.70;57.70;;;;;;6280407;22;20156;-85
2023/12/25 00:37:47;;;;;;;3.30;2.70;;;11.70;60.40;;;;;;6277356;22;20168;-84
2023/12/25 00:40:13;;;;;;;3.67;2.57;;;11.70;61.00;;;;;;6279304;22;20176;-84
2023/12/25 00:42:38;;;;;;;5.37;2.80;;;11.70;62.60;;;;;;6277544;22;20554;-86
2023/12/25 00:45:04;;;;;;;2.50;2.03;;;11.70;63.10;;;;;;6280055;22;20207;-85
2023/12/25 00:47:30;;;;;;;2.73;2.13;;;11.70;66.00;;;;;;6277605;22;20152;-85
2023/12/25 00:49:56;;;;;;;4.40;2.70;;;11.70;64.40;;;;;;6279448;22;20368;-85
2023/12/25 00:52:21;;;;;;;4.50;2.33;;;11.70;63.40;;;;;;6278802;22;20149;-85
2023/12/25 00:54:47;;;;;;;5.43;2.80;;;11.70;66.20;;;;;;6279587;22;20600;-85
2023/12/25 00:57:12;;;;;;;5.10;2.30;;;11.70;65.00;;;;;;6280775;22;20145;-86
2023/12/25 00:59:38;;;;;;;3.43;2.80;;;11.70;65.20;;;;;;6280989;22;20145;-87
2023/12/25 01:02:03;;;;;;;7.33;2.67;;;11.70;65.10;;;;;;6253354;22;20545;-84
2023/12/25 01:04:29;;;;;;;5.10;3.33;;;11.70;65.70;;;;;;6278372;22;20251;-84
2023/12/25 01:06:54;;;;;;;3.10;2.43;;;11.70;66.50;;;;;;6280067;22;20167;-86
2023/12/25 01:09:20;;;;;;;2.40;2.10;;;11.70;67.20;;;;;;6251900;22;20223;-85
2023/12/25 01:11:45;;;;;;;4.00;2.47;;;11.70;66.40;;;;;;6280240;22;20612;-85
2023/12/25 01:14:11;;;;;;;2.60;2.23;;;11.70;63.70;;;;;;6279530;22;20149;-86
2023/12/25 01:16:37;;;;;;;3.03;2.23;;;11.70;63.50;;;;;;6277293;22;20164;-86
2023/12/25 01:19:03;;;;;;;3.87;2.50;;;11.70;60.60;;;;;;6279414;22;20220;-86
2023/12/25 01:21:29;;;;;;;4.83;2.23;;;11.70;56.10;;;;;;6281872;22;20391;-85
2023/12/25 01:23:55;;;;;;;2.87;2.00;;;11.70;52.80;;;;;;6280976;22;20426;-86
2023/12/25 01:26:20;;;;;;;4.30;2.23;;;11.80;49.20;;;;;;6281634;22;20145;-85
2023/12/25 01:28:46;;;;;;;4.77;2.20;;;11.80;47.50;;;;;;6280985;22;20176;-85
2023/12/25 01:31:11;;;;;;;3.33;2.30;;;11.80;42.90;;;;;;6254620;22;20582;-86
2023/12/25 01:33:37;;;;;;;3.93;2.20;;;11.80;39.90;;;;;;6282601;22;20152;-86
2023/12/25 01:36:03;;;;;;;2.70;1.93;;;11.80;38.70;;;;;;6282241;22;20153;-85
2023/12/25 01:38:28;;;;;;;2.37;1.40;;;11.80;38.90;;;;;;6280252;22;20160;-85
2023/12/25 01:40:54;;;;;;;2.50;1.80;;;11.90;31.80;;;;;;6279976;22;20734;-85
2023/12/25 01:43:19;;;;;;;2.80;1.73;;;11.90;28.00;;;;;;6279458;22;20184;-85
2023/12/25 01:45:45;;;;;;;2.87;1.90;;;11.90;28.50;;;;;;6281242;22;20165;-85
2023/12/25 01:48:11;;;;;;;2.83;2.13;;;11.90;25.80;;;;;;6281696;22;20149;-85
2023/12/25 01:50:37;;;;;;;2.53;1.70;;;11.90;27.20;;;;;;6281936;22;20181;-86
2023/12/25 01:53:04;;;;;;;2.23;2.03;;;11.90;26.20;;;;;;6280540;22;20375;-85
2023/12/25 01:55:30;;;;;;;2.93;1.83;;;11.90;21.00;;;;;;6279023;22;20380;-85
2023/12/25 01:57:56;;;;;;;2.83;2.10;;;12.00;19.60;;;;;;6280365;22;20379;-85
2023/12/25 02:00:21;;;;;;;3.20;1.70;;;12.00;17.80;;;;;;6281956;22;20793;-85
2023/12/25 02:02:47;;;;;;;2.40;1.57;;;12.00;16.00;;;;;;6279709;22;20211;-85
2023/12/25 02:05:12;;;;;;;3.13;2.10;;;12.00;17.90;;;;;;6281428;22;20156;-85
2023/12/25 02:07:41;;;;;;;2.40;1.53;;;12.00;20.30;;;;;;6278383;22;20168;-86
2023/12/25 02:10:08;;;;;;;2.23;1.87;;;12.00;22.40;;;;;;6251505;22;20172;-85
2023/12/25 02:12:34;;;;;;;1.97;1.57;;;12.00;21.80;;;;;;6277558;22;20437;-85
2023/12/25 02:15:00;;;;;;;5.20;1.60;;;12.00;21.50;;;;;;6249435;22;20394;-85
2023/12/25 02:17:26;;;;;;;2.97;1.77;;;12.00;19.40;;;;;;6250786;22;20415;-85
2023/12/25 02:19:53;;;;;;;1.77;1.23;;;12.00;19.40;;;;;;6274444;22;20375;-86
2023/12/25 02:22:19;;;;;;;1.30;1.10;;;12.00;19.20;;;;;;6274452;22;20753;-84
2023/12/25 02:24:55;;;;;;;4.50;1.50;;;12.00;18.20;;;;;;6274092;22;20422;-85
2023/12/25 02:27:20;;;;;;;1.90;1.63;;;12.00;15.50;;;;;;6274962;22;20835;-85
2023/12/25 02:29:46;;;;;;;1.70;1.30;;;12.00;18.70;;;;;;6248820;22;20395;-86
2023/12/25 02:32:11;;;;;;;3.80;1.90;;;12.00;18.60;;;;;;6276787;22;20203;-85
2023/12/25 02:34:37;;;;;;;5.20;1.47;;;12.00;19.40;;;;;;6274180;22;20477;-84
2023/12/25 02:37:02;;;;;;;2.57;1.40;;;12.00;19.30;;;;;;6276567;22;20274;-85
2023/12/25 02:39:29;;;;;;;3.77;1.50;;;12.00;22.70;;;;;;6275547;22;20149;-85
2023/12/25 02:41:54;;;;;;;3.80;1.53;;;12.00;23.50;;;;;;6276380;22;20168;-85
2023/12/25 02:44:20;;;;;;;2.50;1.70;;;12.00;24.20;;;;;;6275811;22;21105;-85
2023/12/25 02:46:45;;;;;;;2.50;1.50;;;11.90;26.10;;;;;;6276132;22;20159;-86
2023/12/25 02:49:11;;;;;;;2.27;2.00;;;11.90;28.70;;;;;;6275824;22;20145;-86
2023/12/25 02:51:36;;;;;;;2.50;2.00;;;11.90;32.20;;;;;;6279463;22;20194;-86
2023/12/25 02:54:02;;;;;;;2.17;1.90;;;11.90;40.00;;;;;;6283241;22;20153;-85
2023/12/25 02:56:27;;;;;;;3.97;2.33;;;11.90;44.00;;;;;;6256302;22;20156;-86
2023/12/25 02:58:53;;;;;;;3.20;2.17;;;11.90;47.70;;;;;;6256974;22;20191;-86
2023/12/25 03:01:18;;;;;;;4.60;2.47;;;11.90;54.20;;;;;;6284523;22;20181;-86
2023/12/25 03:03:44;;;;;;;2.40;2.10;;;11.90;57.20;;;;;;6284070;22;20642;-85
2023/12/25 03:06:10;;;;;;;4.10;2.57;;;11.80;58.60;;;;;;6257169;22;20619;-85
2023/12/25 03:08:35;;;;;;;2.90;2.43;;;11.90;59.10;;;;;;6283256;22;20145;-85
2023/12/25 03:11:01;;;;;;;3.27;2.33;;;11.80;60.70;;;;;;6282765;22;20195;-86
2023/12/25 03:13:26;;;;;;;2.83;2.43;;;11.80;59.80;;;;;;6285035;22;20190;-86
2023/12/25 03:15:52;;;;;;;6.30;2.60;;;11.80;60.80;;;;;;6285859;22;20156;-85
2023/12/25 03:18:17;;;;;;;5.67;2.97;;;11.80;58.90;;;;;;6285364;22;20172;-86
2023/12/25 03:20:43;;;;;;;5.03;2.70;;;11.90;59.60;;;;;;6283566;22;20172;-86
2023/12/25 03:23:08;;;;;;;5.80;3.13;;;11.90;57.70;;;;;;6284232;22;20176;-86
2023/12/25 03:25:34;;;;;;;3.10;2.30;;;11.80;55.60;;;;;;6282978;22;20156;-85
2023/12/25 03:27:59;;;;;;;3.50;2.67;;;11.90;54.90;;;;;;6280031;22;20153;-86
2023/12/25 03:30:24;;;;;;;4.10;2.30;;;11.90;54.10;;;;;;6283995;22;20164;-85
2023/12/25 03:32:50;;;;;;;3.57;2.00;;;11.90;52.60;;;;;;6255292;22;20209;-83
2023/12/25 03:35:15;;;;;;;4.33;2.67;;;11.90;52.60;;;;;;6256677;22;20153;-85
2023/12/25 03:37:41;;;;;;;2.80;2.60;;;11.90;54.10;;;;;;6279732;22;20163;-85
2023/12/25 03:40:09;;;;;;;3.50;2.13;;;11.90;52.60;;;;;;6275555;22;20268;-85
2023/12/25 03:42:34;;;;;;;4.43;1.93;;;11.90;50.90;;;;;;6247901;22;20160;-85
2023/12/25 03:45:00;;;;;;;4.20;2.17;;;11.90;51.20;;;;;;6274982;22;20368;-86
2023/12/25 03:47:25;;;;;;;5.87;2.43;;;11.90;50.00;;;;;;6275323;22;20669;-85
2023/12/25 03:49:51;;;;;;;3.60;2.20;;;11.90;48.80;;;;;;6248114;22;20163;-83
2023/12/25 03:52:16;;;;;;;2.57;2.00;;;11.90;48.60;;;;;;6248093;22;20149;-85
2023/12/25 03:54:42;;;;;;;6.17;1.93;;;11.90;46.70;;;;;;6275041;22;20180;-85
2023/12/25 03:57:08;;;;;;;3.30;2.00;;;12.00;44.90;;;;;;6275165;22;20160;-85
2023/12/25 03:59:33;;;;;;;4.57;2.07;;;12.00;43.00;;;;;;6275920;22;20588;-85
2023/12/25 04:01:59;;;;;;;3.57;1.93;;;12.00;42.10;;;;;;6275996;22;20514;-85
2023/12/25 04:04:24;;;;;;;3.90;2.07;;;12.00;39.20;;;;;;6273784;22;20259;-83
2023/12/25 04:06:50;;;;;;;5.37;2.00;;;12.00;33.40;;;;;;6275812;22;20153;-85
2023/12/25 04:09:15;;;;;;;4.70;2.50;;;12.00;32.40;;;;;;6275221;22;20149;-85
2023/12/25 04:11:41;;;;;;;3.03;1.70;;;12.00;26.00;;;;;;6275291;22;20295;-85
2023/12/25 04:14:06;;;;;;;4.57;1.73;;;12.00;21.80;;;;;;6247520;22;20156;-84
2023/12/25 04:16:32;;;;;;;6.30;2.00;;;12.00;20.00;;;;;;6275595;22;20231;-84
2023/12/25 04:18:57;;;;;;;2.10;1.60;;;12.10;15.70;;;;;;6248423;22;20160;-85
2023/12/25 04:21:28;;;;;;;4.70;2.00;;;12.10;12.20;;;;;;6274439;22;20173;-85
2023/12/25 04:23:55;;;;;;;1.83;1.63;;;12.10;7.50;;;;;;6280764;22;20180;-86
2023/12/25 04:26:22;;;;;;;2.87;1.60;;;12.10;3.00;;;;;;6283988;22;20387;-85
2023/12/25 04:28:48;;;;;;;1.40;1.30;;;12.10;1.20;;;;;;6284603;22;20450;-85
2023/12/25 04:31:14;;;;;;;2.13;1.60;;;12.10;1.00;;;;;;6257161;22;20741;-85
2023/12/25 04:33:40;;;;;;;3.40;1.30;;;12.10;1.00;;;;;;6283705;22;20375;-86
2023/12/25 04:36:06;;;;;;;1.90;1.70;;;12.20;1.00;;;;;;6284354;22;20426;-86
2023/12/25 04:38:32;;;;;;;2.90;1.80;;;12.20;1.00;;;;;;6253152;22;20160;-85
2023/12/25 04:40:58;;;;;;;2.07;1.23;;;12.20;1.00;;;;;;6282576;22;20395;-86
2023/12/25 04:43:24;;;;;;;2.80;1.23;;;12.10;1.00;;;;;;6283258;22;20561;-85
2023/12/25 04:45:49;;;;;;;3.17;1.83;;;12.20;1.00;;;;;;6256585;22;20391;-86
2023/12/25 04:48:15;;;;;;;2.07;1.63;;;12.20;1.00;;;;;;6256763;22;20155;-85
2023/12/25 04:50:43;;;;;;;2.33;1.50;;;12.20;1.00;;;;;;6256679;22;20172;-86
2023/12/25 04:53:08;;;;;;;3.47;1.97;;;12.10;1.00;;;;;;6282931;22;20149;-85
2023/12/25 04:55:34;;;;;;;2.93;1.80;;;12.10;1.00;;;;;;6279545;22;20383;-85
2023/12/25 04:57:59;;;;;;;2.73;1.43;;;12.10;1.00;;;;;;6282883;22;20203;-86
2023/12/25 05:00:25;;;;;;;3.47;1.60;;;12.10;1.00;;;;;;6255212;22;20656;-86
2023/12/25 05:02:50;;;;;;;2.30;1.60;;;12.00;1.00;;;;;;6283179;22;20176;-85
2023/12/25 05:05:16;;;;;;;3.30;1.43;;;12.00;1.00;;;;;;6256209;22;20145;-86
2023/12/25 05:07:42;;;;;;;4.13;1.60;;;12.00;6.90;;;;;;6283559;22;20492;-84
2023/12/25 05:10:07;;;;;;;2.10;1.63;;;12.00;12.30;;;;;;6250072;22;20194;-85
2023/12/25 05:12:33;;;;;;;2.13;1.57;;;11.90;16.40;;;;;;6273458;22;20214;-85
2023/12/25 05:14:59;;;;;;;1.90;1.50;;;11.90;18.40;;;;;;6248003;22;20379;-85
2023/12/25 05:17:25;;;;;;;4.90;1.43;;;11.90;17.90;;;;;;6274749;22;20287;-86
2023/12/25 05:19:50;;;;;;;2.17;1.67;;;11.90;21.80;;;;;;6247207;22;20159;-86
2023/12/25 05:22:16;;;;;;;1.70;1.40;;;11.90;24.30;;;;;;6274825;22;21088;-86
2023/12/25 05:24:42;;;;;;;2.80;1.60;;;11.90;23.70;;;;;;6273513;22;20191;-83
2023/12/25 05:27:08;;;;;;;2.43;1.70;;;11.80;27.50;;;;;;6274985;22;20375;-86
2023/12/25 05:29:33;;;;;;;6.10;1.67;;;11.80;27.50;;;;;;6246439;22;20207;-85
2023/12/25 05:31:59;;;;;;;1.50;1.40;;;11.80;28.70;;;;;;6274565;22;20173;-85
2023/12/25 05:34:26;;;;;;;1.63;1.00;;;11.80;29.80;;;;;;6273283;22;20149;-85
2023/12/25 05:36:52;;;;;;;2.13;1.63;;;11.80;30.80;;;;;;6246891;22;20506;-86
2023/12/25 05:39:18;;;;;;;8.07;2.47;;;11.80;29.70;;;;;;6274658;22;20430;-85
2023/12/25 05:41:44;;;;;;;3.63;2.63;;;11.80;28.90;;;;;;6274362;22;20917;-86
2023/12/25 05:44:09;;;;;;;2.43;2.20;;;11.80;28.70;;;;;;6274373;22;20640;-85
2023/12/25 05:46:35;;;;;;;5.33;2.03;;;11.80;29.30;;;;;;6273196;22;20548;-85
2023/12/25 05:49:02;;;;;;;4.20;1.60;;;11.80;29.40;;;;;;6248274;22;20296;-84
2023/12/25 05:51:27;;;;;;;3.07;1.57;;;11.80;28.80;;;;;;6274166;22;20449;-85
2023/12/25 05:53:53;;;;;;;2.60;1.70;;;11.80;28.70;;;;;;6274112;22;20375;-85
2023/12/25 05:56:19;;;;;;;2.83;1.57;;;11.90;27.50;;;;;;6255555;22;20585;-85
2023/12/25 05:58:44;;;;;;;2.77;1.87;;;11.90;26.90;;;;;;6285303;22;20149;-86
2023/12/25 06:01:12;;;;;;;3.10;1.70;;;11.90;26.40;;;;;;6284026;22;20423;-85
2023/12/25 06:03:38;;;;;;;2.10;1.40;;;11.80;25.20;;;;;;6282303;22;20179;-86
2023/12/25 06:06:04;;;;;;;1.70;1.50;;;11.80;26.40;;;;;;6286050;22;20368;-85
2023/12/25 06:08:30;;;;;;;3.67;1.33;;;11.80;27.40;;;;;;6283406;22;20443;-85
2023/12/25 06:10:57;;;;;;;2.10;1.60;;;11.80;26.30;;;;;;6285195;22;20415;-86
2023/12/25 06:13:22;;;;;;;5.07;1.70;;;11.80;26.80;;;;;;6286113;22;20573;-86
2023/12/25 06:15:51;;;;;;;3.07;1.80;;;11.80;26.50;;;;;;6257975;22;20406;-86
2023/12/25 06:18:17;;;;;;;2.30;1.80;;;11.80;25.00;;;;;;6285085;22;20149;-85
2023/12/25 06:20:43;;;;;;;2.03;1.30;;;11.80;26.00;;;;;;6282536;22;20395;-86
2023/12/25 06:23:08;;;;;;;2.67;1.80;;;11.90;28.40;;;;;;6282682;22;20518;-86
2023/12/25 06:25:34;;;;;;;2.30;1.40;;;11.90;31.10;;;;;;6283144;22;20379;-86
2023/12/25 06:28:00;;;;;;;2.07;1.30;;;11.80;33.20;;;;;;6285565;22;20156;-85
2023/12/25 06:30:25;;;;;;;2.00;1.23;;;11.80;35.00;;;;;;6285009;22;20390;-85
2023/12/25 06:32:51;;;;;;;7.07;2.73;;;11.80;36.80;;;;;;6284324;22;20153;-86
2023/12/25 06:35:16;;;;;;;4.20;1.57;;;11.80;37.90;;;;;;6284685;22;20236;-86
2023/12/25 06:37:42;;;;;;;1.83;1.57;;;11.80;37.80;;;;;;6253677;22;20176;-85
2023/12/25 06:40:08;;;;;;;2.63;1.27;;;11.80;38.60;;;;;;6281811;22;20491;-84
2023/12/25 06:42:34;;;;;;;4.40;1.60;;;11.80;38.50;;;;;;6275181;22;20203;-85
2023/12/25 06:44:59;;;;;;;1.87;1.47;;;11.80;40.10;;;;;;6276383;22;20740;-85
2023/12/25 06:47:26;;;;;;;1.97;1.00;;;11.80;38.90;;;;;;6276230;22;20517;-85
2023/12/25 06:49:52;;;;;;;1.30;1.13;;;11.80;35.50;;;;;;6276008;22;20144;-85
2023/12/25 06:52:18;;;;;;;5.90;1.90;;;11.90;32.60;;;;;;6276207;22;20374;-86
2023/12/25 06:54:44;;;;;;;2.90;1.23;;;11.80;29.10;;;;;;6274666;22;20403;-85
2023/12/25 06:57:09;;;;;;;3.03;1.27;;;11.80;26.70;;;;;;6276767;22;20157;-86
2023/12/25 06:59:35;;;;;;;1.57;1.13;;;11.90;26.90;;;;;;6275044;22;20153;-85
2023/12/25 07:02:00;;;;;;;1.63;1.10;;;11.90;27.00;;;;;;6275636;22;20644;-85
2023/12/25 07:04:26;;;;;;;1.73;1.00;;;11.90;26.80;;;;;;6275780;22;20176;-85
2023/12/25 07:06:51;;;;;;;1.67;1.03;;;11.90;27.30;;;;;;6275630;22;20207;-86
2023/12/25 07:09:16;;;;;;;1.30;0.80;;;11.90;25.40;;;;;;6276908;22;20153;-85
2023/12/25 07:11:42;;;;;;;2.23;0.97;;;11.90;25.20;;;;;;6275280;22;20165;-85
2023/12/25 07:14:08;;;;;;;1.80;1.10;;;11.90;23.80;;;;;;6276983;22;20157;-85
2023/12/25 07:16:34;;;;;;;1.17;0.93;;;11.90;22.80;;;;;;6276827;22;20157;-85
2023/12/25 07:18:59;;;;;;;1.50;1.00;;;11.90;22.90;;;;;;6276704;22;20843;-85
2023/12/25 07:21:25;;;;;;;1.97;1.00;;;11.90;22.90;;;;;;6277291;22;20173;-85
2023/12/25 07:23:52;;;;;;;2.00;0.90;;;11.90;23.30;;;;;;6276889;22;20230;-86
2023/12/25 07:26:18;;;;;;;2.23;0.80;;;11.90;19.80;;;;;;6278168;22;20148;-84
2023/12/25 07:28:44;;;;;;;1.20;1.10;;;11.90;16.40;;;;;;6261197;22;20375;-86
2023/12/25 07:31:10;;;;;;;1.73;1.00;;;12.00;15.30;;;;;;6288232;22;20415;-86
2023/12/25 07:33:36;;;;;;;1.30;0.80;;;12.00;14.80;;;;;;6292234;22;20382;-86
2023/12/25 07:36:02;;;;;;;2.50;0.80;;;12.00;10.10;;;;;;6265219;22;20160;-86
2023/12/25 07:38:28;;;;;;;1.30;0.80;;;12.10;6.20;;;;;;6262665;22;20777;-85
2023/12/25 07:40:53;;;;;;;1.63;0.80;;;12.10;1.50;;;;;;6288373;22;20404;-86
2023/12/25 07:43:19;;;;;;;3.60;0.80;;;12.10;1.00;;;;;;6291668;22;20196;-86
2023/12/25 07:45:44;;;;;;;1.10;0.70;;;12.10;1.00;;;;;;6264517;22;20160;-84
2023/12/25 07:48:10;;;;;;;1.27;0.80;;;12.10;1.00;;;;;;6290669;22;20202;-84
2023/12/25 07:50:35;;;;;;;0.90;0.70;;;12.10;1.00;;;;;;6264495;22;20169;-85
2023/12/25 07:53:02;;;;;;;1.30;0.80;;;12.20;1.00;;;;;;6291979;22;20152;-85
2023/12/25 07:55:29;;;;;;;1.30;0.70;;;12.10;1.00;;;;;;6288290;22;20228;-84
2023/12/25 07:57:55;;;;;;;1.20;0.80;;;12.10;1.00;;;;;;6287212;22;20406;-85
2023/12/25 08:00:21;;;;;;;2.13;0.90;;;12.10;1.00;;;;;;6286341;22;20423;-86
2023/12/25 08:02:46;;;;;;;2.70;0.70;;;12.20;1.00;;;;;;6286498;22;20199;-85
2023/12/25 08:05:12;;;;;;;2.00;0.87;;;12.20;1.00;;;;;;6290329;22;20149;-84
2023/12/25 08:07:37;;;;;;;1.00;0.60;;;12.20;1.00;;;;;;6288128;22;20159;-84
2023/12/25 08:10:03;;;;;;;1.20;0.70;;;12.20;1.00;;;;;;6288516;22;20183;-86
2023/12/25 08:12:29;;;;;;;1.30;0.80;;;12.20;1.00;;;;;;6260113;22;20861;-84
2023/12/25 08:14:54;;;;;;;0.90;0.60;;;12.30;1.00;;;;;;6275726;22;20152;-84
2023/12/25 08:17:20;;;;;;;1.10;0.70;;;12.30;1.00;;;;;;6276376;22;20224;-84
2023/12/25 08:19:45;;;;;;;1.17;0.60;;;12.30;1.00;;;;;;6276913;22;20156;-84
2023/12/25 08:22:11;;;;;;;2.13;0.60;;;12.30;1.00;;;;;;6252395;22;20233;-84
2023/12/25 08:24:36;;;;;;;0.93;0.60;;;12.30;1.00;;;;;;6282230;22;20177;-85
2023/12/25 08:27:03;;;;;;;1.30;0.60;;;12.30;1.00;;;;;;6279601;22;20152;-85
2023/12/25 08:29:28;;;;;;;1.93;0.80;;;12.40;1.00;;;;;;6280062;22;20176;-85
2023/12/25 08:31:55;;;;;;;2.00;0.60;;;12.40;1.00;;;;;;6281155;22;20392;-82
2023/12/25 08:34:23;;;;;;;2.50;0.63;;;12.40;1.00;;;;;;6279131;22;20208;-85
2023/12/25 08:36:48;;;;;;;1.20;0.80;;;12.40;1.00;;;;;;6274964;22;20414;-84
2023/12/25 08:39:15;;;;;;;1.70;0.80;;;12.50;1.00;;;;;;6274527;22;20459;-84
2023/12/25 08:41:40;;;;;;;1.60;0.70;;;12.50;1.00;;;;;;6248471;22;20204;-82
2023/12/25 08:44:06;;;;;;;1.10;0.80;;;12.50;1.00;;;;;;6275931;22;20423;-84
2023/12/25 08:46:32;;;;;;;1.67;0.73;;;12.50;1.00;;;;;;6275327;22;20156;-82
2023/12/25 08:48:58;;;;;;;1.33;0.70;;;12.50;1.00;;;;;;6275216;22;20383;-83
2023/12/25 08:51:23;;;;;;;1.23;0.70;;;12.50;1.00;;;;;;6275276;22;20168;-83
2023/12/25 08:53:49;;;;;;;4.70;1.00;;;12.50;1.00;;;;;;6273234;22;20410;-84
2023/12/25 08:56:25;;;;;;;1.20;0.77;;;12.50;1.00;;;;;;6274501;22;20547;-83
2023/12/25 08:58:51;;;;;;;1.50;0.80;;;12.50;1.00;;;;;;6275854;22;20173;-87
2023/12/25 09:01:17;;;;;;;2.03;0.70;;;12.50;1.00;;;;;;6253689;22;20431;-85
2023/12/25 09:03:42;;;;;;;1.27;1.07;;;12.60;1.00;;;;;;6280386;22;20228;-84
2023/12/25 09:06:08;;;;;;;1.00;0.67;;;12.50;1.00;;;;;;6253354;22;20156;-85
2023/12/25 09:08:33;;;;;;;1.03;0.73;;;12.60;1.00;;;;;;6281977;22;20690;-85
2023/12/25 09:10:59;;;;;;;1.00;0.77;;;12.60;1.00;;;;;;6280264;22;20199;-86
2023/12/25 09:13:24;;;;;;;1.53;0.80;;;12.60;1.00;;;;;;6280208;22;20223;-84
2023/12/25 09:15:50;;;;;;;1.50;0.80;;;12.60;1.00;;;;;;6281164;22;20199;-85
2023/12/25 09:18:15;;;;;;;1.00;0.70;;;12.60;1.00;;;;;;6279931;22;20525;-84
2023/12/25 09:20:41;;;;;;;1.00;0.80;;;12.60;1.00;;;;;;6280851;22;20175;-85
2023/12/25 09:23:07;;;;;;;2.20;0.80;;;12.70;1.00;;;;;;6284112;22;20181;-87
2023/12/25 09:25:32;;;;;;;1.30;0.90;;;12.70;1.00;;;;;;6281046;22;20164;-85
2023/12/25 09:27:58;;;;;;;1.10;0.80;;;12.60;1.00;;;;;;6253552;22;20508;-84
2023/12/25 09:30:23;;;;;;;1.00;0.80;;;12.60;1.00;;;;;;6278388;22;20475;-85
2023/12/25 09:32:49;;;;;;;1.17;0.70;;;12.50;1.00;;;;;;6278092;22;20157;-84
2023/12/25 09:35:15;;;;;;;1.10;0.83;;;12.60;1.00;;;;;;6279192;22;20592;-85
2023/12/25 09:37:41;;;;;;;1.10;0.87;;;12.60;1.00;;;;;;6281535;22;20145;-84
2023/12/25 09:40:07;;;;;;;1.10;0.83;;;12.60;1.00;;;;;;6281594;22;20395;-84
2023/12/25 09:42:33;;;;;;;1.30;0.60;;;12.70;1.00;;;;;;6280968;22;20716;-84
2023/12/25 09:44:59;;;;;;;0.93;0.60;;;12.70;1.00;;;;;;6281173;22;20380;-84
2023/12/25 09:47:25;;;;;;;1.53;0.70;;;12.60;1.00;;;;;;6275985;22;20205;-84
2023/12/25 09:49:53;;;;;;;0.90;0.60;;;12.60;1.00;;;;;;6277209;22;20152;-84
2023/12/25 09:52:21;;;;;;;1.00;0.70;;;12.60;1.00;;;;;;6278870;22;20380;-85
2023/12/25 09:54:46;;;;;;;1.40;0.80;;;12.60;1.00;;;;;;6276484;22;20380;-83
2023/12/25 09:57:13;;;;;;;1.07;0.70;;;12.60;1.00;;;;;;6279752;22;20406;-85
2023/12/25 09:59:40;;;;;;;0.90;0.60;;;12.70;1.00;;;;;;6250535;22;20160;-86
2023/12/25 10:02:06;;;;;;;1.40;0.90;;;12.70;1.00;;;;;;6280675;22;20391;-83
2023/12/25 10:04:36;;;;;;;0.90;0.60;;;12.70;1.00;;;;;;6280723;22;20415;-85
2023/12/25 10:07:02;;;;;;;3.33;0.80;;;12.80;1.00;;;;;;6283203;22;20382;-84
2023/12/25 10:09:29;;;;;;;1.17;0.70;;;12.80;1.00;;;;;;6283026;22;20371;-84
2023/12/25 10:11:55;;;;;;;1.00;0.60;;;12.80;1.00;;;;;;6255475;22;20553;-84
2023/12/25 10:14:21;;;;;;;2.37;0.80;;;12.80;1.00;;;;;;6281905;22;20380;-83
2023/12/25 10:16:46;;;;;;;1.53;0.60;;;12.80;1.00;;;;;;6280597;22;20173;-84
2023/12/25 10:19:12;;;;;;;1.00;0.70;;;12.70;1.00;;;;;;6253164;22;20226;-85
2023/12/25 10:21:42;;;;;;;1.50;0.80;;;12.70;1.00;;;;;;6277723;22;20169;-84
2023/12/25 10:24:15;;;;;;;1.10;0.80;;;12.70;1.00;;;;;;6276410;22;20213;-84
2023/12/25 10:26:43;;;;;;;1.20;0.90;;;12.80;1.00;;;;;;6277048;22;20368;-82
2023/12/25 10:29:08;;;;;;;1.10;1.00;;;12.80;1.00;;;;;;6276303;22;20379;-83
2023/12/25 10:31:36;;;;;;;1.10;0.90;;;12.80;1.00;;;;;;6279197;22;20398;-84
2023/12/25 10:34:01;;;;;;;1.37;1.00;;;12.80;1.00;;;;;;6280088;22;20551;-82
2023/12/25 10:36:27;;;;;;;1.23;0.83;;;12.80;1.00;;;;;;6279195;22;20372;-84
2023/12/25 10:38:52;;;;;;;1.37;1.03;;;12.80;1.00;;;;;;6280242;22;20153;-84
2023/12/25 10:41:22;;;;;;;1.00;0.77;;;12.80;1.00;;;;;;6279066;22;20264;-82
2023/12/25 10:43:55;;;;;;;1.03;0.70;;;12.80;1.00;;;;;;6279062;22;20178;-85
2023/12/25 10:46:26;;;;;;;1.30;0.83;;;12.80;1.00;;;;;;6280504;22;20368;-82
2023/12/25 10:48:53;;;;;;;1.97;1.17;;;12.70;1.00;;;;;;6280453;22;20398;-84
2023/12/25 10:51:36;;;;;;;1.60;1.13;;;12.80;1.00;;;;;;6279721;22;20395;-83
2023/12/25 10:54:08;;;;;;;4.50;1.20;;;12.90;1.00;;;;;;6252599;22;20392;-84
2023/12/25 10:56:36;;;;;;;1.40;0.97;;;12.90;1.00;;;;;;6252729;22;20458;-83
2023/12/25 10:59:27;;;;;;;1.20;1.00;;;12.90;1.00;;;;;;6251459;22;20383;-83
2023/12/25 11:01:54;;;;;;;2.63;1.20;;;12.90;1.00;;;;;;6279101;22;20456;-84
2023/12/25 11:04:20;;;;;;;2.10;1.20;;;12.90;1.00;;;;;;6279161;22;20419;-83
2023/12/25 11:06:47;;;;;;;4.70;1.40;;;13.00;1.00;;;;;;6280301;22;20364;-84
2023/12/25 11:09:15;;;;;;;1.20;1.10;;;13.00;1.00;;;;;;6280190;22;20771;-84
2023/12/25 11:11:41;;;;;;;1.20;1.10;;;13.00;1.00;;;;;;6279494;22;20750;-84
2023/12/25 11:14:07;;;;;;;1.50;1.20;;;13.00;1.00;;;;;;6252177;22;20479;-83
2023/12/25 11:16:36;;;;;;;1.20;1.10;;;13.00;1.00;;;;;;6250235;22;20388;-83
2023/12/25 11:19:04;;;;;;;1.40;1.20;;;13.10;1.00;;;;;;6249102;22;20727;-82
2023/12/25 11:21:32;;;;;;;1.10;1.00;;;13.10;1.00;;;;;;6248770;22;20407;-82
2023/12/25 11:24:00;;;;;;;1.47;1.00;;;13.10;1.00;;;;;;6276635;22;20407;-82
2023/12/25 11:26:29;;;;;;;1.10;0.90;;;13.10;1.00;;;;;;6277472;22;20451;-83
2023/12/25 11:29:05;;;;;;;1.20;1.10;;;13.20;1.00;;;;;;6250218;22;20879;-84
2023/12/25 11:31:42;;;;;;;1.60;1.17;;;13.20;1.00;;;;;;6276724;22;20718;-83
2023/12/25 11:34:21;;;;;;;1.37;1.07;;;13.20;1.00;;;;;;6250014;22;20382;-83
2023/12/25 11:36:51;;;;;;;1.40;1.20;;;13.30;1.00;;;;;;6277778;22;20398;-84
2023/12/25 11:39:17;;;;;;;1.40;1.13;;;13.30;1.00;;;;;;6275672;22;20438;-82
2023/12/25 11:41:44;;;;;;;1.00;0.80;;;13.30;1.00;;;;;;6275480;22;20447;-83
2023/12/25 11:44:18;;;;;;;1.30;1.00;;;13.30;1.00;;;;;;6277315;22;20282;-81
2023/12/25 11:46:47;;;;;;;2.43;1.00;;;13.30;1.00;;;;;;6269437;22;20816;-83
2023/12/25 11:49:14;;;;;;;2.17;1.30;;;13.30;1.00;;;;;;6273480;22;20371;-82
2023/12/25 11:51:47;;;;;;;3.17;1.37;;;13.20;1.00;;;;;;6276144;22;20407;-82
2023/12/25 11:54:12;;;;;;;1.73;1.20;;;13.20;1.00;;;;;;6275451;22;20379;-83
2023/12/25 11:56:38;;;;;;;1.50;1.27;;;13.30;1.00;;;;;;6275736;22;20462;-83
2023/12/25 11:59:04;;;;;;;1.30;1.00;;;13.30;1.00;;;;;;6276320;22;20490;-82
2023/12/25 12:01:30;;;;;;;3.20;1.30;;;13.30;1.00;;;;;;6276110;22;20415;-83
2023/12/25 12:03:56;;;;;;;1.40;1.20;;;13.40;1.00;;;;;;6277130;22;20425;-83
2023/12/25 12:06:22;;;;;;;1.30;1.20;;;13.40;1.00;;;;;;6277816;22;20222;-84
2023/12/25 12:08:48;;;;;;;1.37;1.27;;;13.40;1.00;;;;;;6278338;22;20375;-83
2023/12/25 12:11:15;;;;;;;1.80;1.20;;;13.40;1.00;;;;;;6278292;22;20479;-83
2023/12/25 12:13:42;;;;;;;1.60;1.23;;;13.50;1.00;;;;;;6277896;22;20403;-83
2023/12/25 12:16:08;;;;;;;1.20;1.10;;;13.50;1.00;;;;;;6278570;22;20778;-83
2023/12/25 12:18:34;;;;;;;1.63;1.17;;;13.50;1.00;;;;;;6248858;22;20538;-83
2023/12/25 12:21:00;;;;;;;4.23;1.40;;;13.50;1.00;;;;;;6277625;22;20405;-83
2023/12/25 12:23:32;;;;;;;1.90;1.20;;;13.50;1.00;;;;;;6277423;22;20450;-82
2023/12/25 12:25:59;;;;;;;1.40;1.20;;;13.50;1.00;;;;;;6250744;22;20176;-83
2023/12/25 12:28:25;;;;;;;1.50;1.30;;;13.40;1.00;;;;;;6277985;22;20364;-84
2023/12/25 12:30:51;;;;;;;2.40;1.10;;;13.40;1.00;;;;;;6276922;22;20387;-81
2023/12/25 12:33:18;;;;;;;1.30;1.10;;;13.50;1.00;;;;;;6277432;22;20379;-84
2023/12/25 12:35:48;;;;;;;1.60;1.00;;;13.50;1.00;;;;;;6277175;22;20157;-82
2023/12/25 12:38:14;;;;;;;2.23;1.23;;;13.50;1.00;;;;;;6277678;22;20372;-83
2023/12/25 12:40:40;;;;;;;1.50;1.10;;;13.50;1.00;;;;;;6277267;22;20402;-84
2023/12/25 12:43:05;;;;;;;2.43;1.17;;;13.50;1.00;;;;;;6276531;22;20427;-82
2023/12/25 12:45:31;;;;;;;1.50;1.17;;;13.50;1.00;;;;;;6277152;22;20151;-84